Time;durP1;ratioP1;P1;durP2;ratioP2;P2;SDS_P1;SDS_P2;PMS_P1;PMS_P2;Temp;Humidity;BMP_temperature;BMP_pressure;BME280_temperature;BME280_humidity;BME280_pressure;Samples;Min_cycle;Max_cycle;Signal;HPM_P1;HPM_P2
2021/09/15 00:00:04;;;;;;;7.15;6.45;;;21.70;99.90;;;;;;2088063;28;20052;-68
2021/09/15 00:01:04;;;;;;;6.35;5.85;;;21.70;99.90;;;;;;2080049;28;20021;-68
2021/09/15 00:02:05;;;;;;;7.40;6.50;;;21.70;99.90;;;;;;2079320;28;20068;-68
2021/09/15 00:03:06;;;;;;;8.15;6.70;;;21.70;99.90;;;;;;2078758;28;20108;-68
2021/09/15 00:04:07;;;;;;;6.43;5.93;;;21.70;99.90;;;;;;2079023;28;20079;-68
2021/09/15 00:05:08;;;;;;;7.57;6.75;;;21.70;99.90;;;;;;2079704;28;20061;-68
2021/09/15 00:06:09;;;;;;;7.45;6.75;;;21.60;99.90;;;;;;2079798;28;20057;-68
2021/09/15 00:07:09;;;;;;;9.30;7.00;;;21.70;99.90;;;;;;2079435;28;20021;-68
2021/09/15 00:08:11;;;;;;;7.15;6.43;;;21.60;99.90;;;;;;2080437;28;20109;-70
2021/09/15 00:09:12;;;;;;;7.82;7.03;;;21.60;99.90;;;;;;2085773;28;20467;-68
2021/09/15 00:10:12;;;;;;;7.10;6.50;;;21.60;99.90;;;;;;2084925;28;20342;-68
2021/09/15 00:11:13;;;;;;;8.30;6.65;;;21.60;99.90;;;;;;2085043;28;20025;-68
2021/09/15 00:12:14;;;;;;;7.75;6.78;;;21.60;99.90;;;;;;2081491;28;20021;-68
2021/09/15 00:13:14;;;;;;;8.25;7.45;;;21.60;99.90;;;;;;2082900;28;20107;-68
2021/09/15 00:14:15;;;;;;;7.65;6.60;;;21.60;99.90;;;;;;2079425;28;20067;-69
2021/09/15 00:15:16;;;;;;;8.18;7.05;;;21.60;99.90;;;;;;2079874;28;20535;-68
2021/09/15 00:16:16;;;;;;;7.53;6.60;;;21.60;99.90;;;;;;2079699;28;20022;-68
2021/09/15 00:17:18;;;;;;;9.27;7.07;;;21.60;99.90;;;;;;2081894;28;20033;-68
2021/09/15 00:18:18;;;;;;;8.00;7.18;;;21.60;99.90;;;;;;2085284;28;20170;-69
2021/09/15 00:19:19;;;;;;;9.68;7.25;;;21.60;99.90;;;;;;2079575;28;20022;-69
2021/09/15 00:20:19;;;;;;;7.45;6.85;;;21.50;99.90;;;;;;2078918;28;20462;-70
2021/09/15 00:21:20;;;;;;;7.85;7.05;;;21.50;99.90;;;;;;2079003;28;20108;-70
2021/09/15 00:22:20;;;;;;;9.18;7.03;;;21.50;99.90;;;;;;2078826;28;20379;-71
2021/09/15 00:23:21;;;;;;;6.97;6.47;;;21.50;99.90;;;;;;2083204;28;20025;-68
2021/09/15 00:24:22;;;;;;;8.13;7.35;;;21.50;99.90;;;;;;2079376;28;20025;-68
2021/09/15 00:25:22;;;;;;;7.55;6.82;;;21.50;99.90;;;;;;2079222;28;20109;-68
2021/09/15 00:26:23;;;;;;;7.97;7.28;;;21.50;99.90;;;;;;2084527;28;20025;-68
2021/09/15 00:27:23;;;;;;;8.90;7.35;;;21.50;99.90;;;;;;2079678;28;20024;-68
2021/09/15 00:28:24;;;;;;;7.60;6.90;;;21.50;99.90;;;;;;2079320;28;20024;-68
2021/09/15 00:29:24;;;;;;;8.98;7.15;;;21.50;99.90;;;;;;2079263;28;20025;-68
2021/09/15 00:30:25;;;;;;;7.13;6.53;;;21.50;99.90;;;;;;2079604;28;20443;-69
2021/09/15 00:31:26;;;;;;;7.78;6.95;;;21.50;99.90;;;;;;2079288;28;20020;-68
2021/09/15 00:32:26;;;;;;;7.75;7.05;;;21.40;99.90;;;;;;2079634;28;20023;-68
2021/09/15 00:33:27;;;;;;;9.88;6.78;;;21.50;99.90;;;;;;2079134;28;20501;-68
2021/09/15 00:34:30;;;;;;;7.18;6.55;;;21.40;99.90;;;;;;2082088;28;20382;-68
2021/09/15 00:35:30;;;;;;;10.18;7.28;;;21.40;99.90;;;;;;2087652;28;20421;-68
2021/09/15 00:36:31;;;;;;;8.15;7.05;;;21.40;99.90;;;;;;2086950;28;20086;-68
2021/09/15 00:37:32;;;;;;;7.75;6.93;;;21.40;99.90;;;;;;2079370;28;20033;-68
2021/09/15 00:38:32;;;;;;;8.40;7.32;;;21.40;99.90;;;;;;2079618;28;20120;-68
2021/09/15 00:39:33;;;;;;;7.70;6.82;;;21.40;99.90;;;;;;2079679;28;20113;-68
2021/09/15 00:40:34;;;;;;;7.68;6.95;;;21.40;99.90;;;;;;2083211;28;20028;-68
2021/09/15 00:41:34;;;;;;;7.35;6.72;;;21.40;99.90;;;;;;2080345;28;20432;-68
2021/09/15 00:42:35;;;;;;;8.20;7.40;;;21.40;99.90;;;;;;2079325;28;20028;-68
2021/09/15 00:44:08;;;;;;;8.55;6.47;;;21.40;99.90;;;;;;2079383;28;20401;-68
2021/09/15 00:45:09;;;;;;;7.70;6.97;;;21.40;99.90;;;;;;2079388;28;20176;-68
2021/09/15 00:46:09;;;;;;;8.02;7.22;;;21.30;99.90;;;;;;2079424;28;20029;-68
2021/09/15 00:47:10;;;;;;;8.38;7.60;;;21.40;99.90;;;;;;2079493;28;20473;-68
2021/09/15 00:48:10;;;;;;;7.88;7.07;;;21.30;99.90;;;;;;2079319;28;20041;-68
2021/09/15 00:49:11;;;;;;;8.07;7.28;;;21.30;99.90;;;;;;2079645;28;20448;-70
2021/09/15 00:50:12;;;;;;;7.88;7.18;;;21.30;99.90;;;;;;2079588;28;20033;-70
2021/09/15 00:51:12;;;;;;;9.15;7.53;;;21.30;99.90;;;;;;2079500;28;20075;-70
2021/09/15 00:52:13;;;;;;;8.40;7.38;;;21.30;99.90;;;;;;2085636;28;20147;-70
2021/09/15 00:53:14;;;;;;;8.55;7.75;;;21.30;99.90;;;;;;2079307;28;20025;-70
2021/09/15 00:54:16;;;;;;;8.05;7.22;;;21.30;99.90;;;;;;2079596;28;20104;-70
2021/09/15 00:55:17;;;;;;;7.60;6.90;;;21.30;99.90;;;;;;2079434;28;20096;-70
2021/09/15 00:56:18;;;;;;;8.15;7.18;;;21.30;99.90;;;;;;2078990;28;20036;-70
2021/09/15 00:57:19;;;;;;;11.05;8.05;;;21.30;99.90;;;;;;2079369;28;20382;-70
2021/09/15 00:58:20;;;;;;;7.95;7.25;;;21.30;99.90;;;;;;2079598;28;20092;-70
2021/09/15 00:59:20;;;;;;;9.55;7.13;;;21.30;99.90;;;;;;2079501;28;20377;-70
2021/09/15 01:00:24;;;;;;;8.57;7.10;;;21.30;99.90;;;;;;2079437;28;20046;-70
2021/09/15 01:01:24;;;;;;;9.02;7.22;;;21.30;99.90;;;;;;2079732;28;20159;-71
2021/09/15 01:02:27;;;;;;;8.75;7.18;;;21.30;99.90;;;;;;2079358;28;20033;-71
2021/09/15 01:03:27;;;;;;;7.82;7.22;;;21.30;99.90;;;;;;2079125;28;20102;-71
2021/09/15 01:04:28;;;;;;;7.35;6.57;;;21.30;99.90;;;;;;2079264;28;20029;-71
2021/09/15 01:05:28;;;;;;;8.32;7.07;;;21.30;99.90;;;;;;2081201;28;20060;-71
2021/09/15 01:06:30;;;;;;;8.57;7.03;;;21.30;99.90;;;;;;2087518;28;20481;-71
2021/09/15 01:07:32;;;;;;;6.88;6.40;;;21.30;99.90;;;;;;2080084;28;20033;-71
2021/09/15 01:08:34;;;;;;;6.70;6.07;;;21.30;99.90;;;;;;2079319;28;20507;-71
2021/09/15 01:09:35;;;;;;;7.63;6.50;;;21.30;99.90;;;;;;2079415;28;20022;-71
2021/09/15 01:10:36;;;;;;;7.35;6.75;;;21.30;99.90;;;;;;2079297;28;20033;-71
2021/09/15 01:11:42;;;;;;;7.72;6.93;;;21.30;99.90;;;;;;2079264;28;20029;-71
2021/09/15 01:12:44;;;;;;;7.80;7.07;;;21.30;99.90;;;;;;2079426;28;20025;-71
2021/09/15 01:13:45;;;;;;;7.40;6.65;;;21.30;99.90;;;;;;2080331;28;20075;-71
2021/09/15 01:14:46;;;;;;;9.02;7.00;;;21.30;99.90;;;;;;2078990;28;20097;-71
2021/09/15 01:15:46;;;;;;;7.82;7.05;;;21.30;99.90;;;;;;2079418;28;20041;-71
2021/09/15 01:16:51;;;;;;;7.72;6.75;;;21.30;99.90;;;;;;2079746;28;20042;-71
2021/09/15 01:17:51;;;;;;;7.47;6.53;;;21.30;99.90;;;;;;2087138;28;20508;-71
2021/09/15 01:18:52;;;;;;;8.20;7.28;;;21.30;99.90;;;;;;2078809;28;20421;-71
2021/09/15 01:19:52;;;;;;;7.28;6.68;;;21.30;99.90;;;;;;2079342;28;20032;-71
2021/09/15 01:20:54;;;;;;;7.68;6.90;;;21.30;99.90;;;;;;2086632;28;20032;-71
2021/09/15 01:21:55;;;;;;;7.93;7.07;;;21.30;99.90;;;;;;2081410;28;20087;-71
2021/09/15 01:22:56;;;;;;;7.85;7.15;;;21.30;99.90;;;;;;2078135;28;20519;-71
2021/09/15 01:23:56;;;;;;;7.90;7.05;;;21.20;99.90;;;;;;2078861;28;20393;-71
2021/09/15 01:24:57;;;;;;;7.80;7.20;;;21.20;99.90;;;;;;2079070;28;20100;-71
2021/09/15 01:25:57;;;;;;;7.90;7.22;;;21.20;99.90;;;;;;2079360;28;20022;-71
2021/09/15 01:26:59;;;;;;;9.00;7.43;;;21.20;99.90;;;;;;2079331;28;20048;-71
2021/09/15 01:27:59;;;;;;;7.30;6.68;;;21.30;99.90;;;;;;2079324;28;20025;-71
2021/09/15 01:29:00;;;;;;;7.30;6.60;;;21.20;99.90;;;;;;2084632;28;20116;-71
2021/09/15 01:30:01;;;;;;;8.57;7.70;;;21.20;99.90;;;;;;2081539;28;20040;-71
2021/09/15 01:31:01;;;;;;;7.93;6.28;;;21.20;99.90;;;;;;2077211;28;20040;-71
2021/09/15 01:32:06;;;;;;;7.03;6.43;;;21.30;99.90;;;;;;2087262;28;20060;-71
2021/09/15 01:33:12;;;;;;;8.23;7.25;;;21.20;99.90;;;;;;2085218;28;20447;-70
2021/09/15 01:34:12;;;;;;;7.88;7.07;;;21.30;99.90;;;;;;2087351;28;20052;-71
2021/09/15 01:35:13;;;;;;;7.43;6.82;;;21.20;99.90;;;;;;2084008;28;20045;-71
2021/09/15 01:36:13;;;;;;;7.18;6.60;;;21.20;99.90;;;;;;2085314;28;20476;-71
2021/09/15 01:37:15;;;;;;;7.50;6.80;;;21.20;99.90;;;;;;2080844;28;20052;-71
2021/09/15 01:38:16;;;;;;;6.38;5.88;;;21.20;99.90;;;;;;2080915;28;20370;-71
2021/09/15 01:39:17;;;;;;;8.13;7.28;;;21.20;99.90;;;;;;2081103;28;20030;-71
2021/09/15 01:40:18;;;;;;;7.53;6.82;;;21.20;99.90;;;;;;2085268;28;20108;-71
2021/09/15 01:41:18;;;;;;;8.10;7.30;;;21.20;99.90;;;;;;2083356;28;20083;-71
2021/09/15 01:42:19;;;;;;;8.10;7.40;;;21.20;99.90;;;;;;2080727;28;20900;-71
2021/09/15 01:43:19;;;;;;;7.00;6.13;;;21.20;99.90;;;;;;2080100;28;20886;-71
2021/09/15 01:44:20;;;;;;;8.63;6.80;;;21.20;99.90;;;;;;2080443;28;20033;-71
2021/09/15 01:45:20;;;;;;;6.50;5.90;;;21.20;99.90;;;;;;2080237;28;20124;-71
2021/09/15 01:46:21;;;;;;;6.97;6.22;;;21.20;99.90;;;;;;2080403;28;20371;-71
2021/09/15 01:47:21;;;;;;;7.72;7.03;;;21.20;99.90;;;;;;2080916;28;20049;-71
2021/09/15 01:48:22;;;;;;;7.05;6.35;;;21.20;99.90;;;;;;2085678;28;20088;-71
2021/09/15 01:49:22;;;;;;;7.80;7.13;;;21.20;99.90;;;;;;2082998;28;20037;-71
2021/09/15 01:50:24;;;;;;;8.57;7.03;;;21.20;99.90;;;;;;2080536;28;20075;-71
2021/09/15 01:51:24;;;;;;;8.02;7.35;;;21.20;99.90;;;;;;2080488;28;20060;-71
2021/09/15 01:52:25;;;;;;;8.02;7.22;;;21.20;99.90;;;;;;2080664;28;20062;-71
2021/09/15 01:53:25;;;;;;;8.50;7.60;;;21.20;99.90;;;;;;2080453;28;20021;-71
2021/09/15 01:54:27;;;;;;;6.93;6.43;;;21.20;99.90;;;;;;2080579;28;20045;-71
2021/09/15 01:55:29;;;;;;;7.15;6.65;;;21.20;99.90;;;;;;2080517;28;20033;-71
2021/09/15 01:56:29;;;;;;;7.65;7.00;;;21.20;99.90;;;;;;2080295;28;20037;-71
2021/09/15 01:57:30;;;;;;;8.07;7.38;;;21.20;99.90;;;;;;2080505;28;20032;-71
2021/09/15 01:58:30;;;;;;;8.07;7.38;;;21.20;99.90;;;;;;2080625;28;20470;-71
2021/09/15 01:59:31;;;;;;;7.47;6.72;;;21.20;99.90;;;;;;2080647;28;20036;-71
2021/09/15 02:00:31;;;;;;;7.82;7.03;;;21.10;99.90;;;;;;2080506;28;20071;-71
2021/09/15 02:01:32;;;;;;;8.63;7.70;;;21.10;99.90;;;;;;2081768;28;20034;-71
2021/09/15 02:02:32;;;;;;;7.63;6.72;;;21.10;99.90;;;;;;2081936;28;20083;-71
2021/09/15 02:03:33;;;;;;;7.72;7.18;;;21.10;99.90;;;;;;2088308;28;20056;-71
2021/09/15 02:04:33;;;;;;;6.97;6.38;;;21.10;99.90;;;;;;2081713;28;20057;-71
2021/09/15 02:05:34;;;;;;;8.18;7.40;;;21.10;99.90;;;;;;2083537;28;20026;-71
2021/09/15 02:06:35;;;;;;;8.63;7.35;;;21.10;99.90;;;;;;2081878;28;20033;-71
2021/09/15 02:07:36;;;;;;;9.15;7.13;;;21.10;99.90;;;;;;2081949;28;20026;-71
2021/09/15 02:08:36;;;;;;;8.20;7.40;;;21.10;99.90;;;;;;2081871;28;20118;-71
2021/09/15 02:09:37;;;;;;;9.00;7.50;;;21.10;99.90;;;;;;2081938;28;20025;-71
2021/09/15 02:10:38;;;;;;;7.72;6.93;;;21.10;99.90;;;;;;2081909;28;20028;-71
2021/09/15 02:11:38;;;;;;;7.57;6.97;;;21.10;99.90;;;;;;2081293;28;20462;-71
2021/09/15 02:12:39;;;;;;;7.68;7.07;;;21.10;99.90;;;;;;2081424;28;20022;-71
2021/09/15 02:13:40;;;;;;;7.63;7.03;;;21.10;99.90;;;;;;2083848;28;20021;-71
2021/09/15 02:14:40;;;;;;;8.45;7.68;;;21.10;99.90;;;;;;2081815;28;20033;-71
2021/09/15 02:15:41;;;;;;;8.15;7.45;;;21.10;99.90;;;;;;2081961;28;20663;-71
2021/09/15 02:16:41;;;;;;;8.45;7.75;;;21.10;99.90;;;;;;2081559;28;20048;-71
2021/09/15 02:17:42;;;;;;;7.75;6.95;;;21.10;99.90;;;;;;2082046;28;20500;-71
2021/09/15 02:18:42;;;;;;;7.75;7.15;;;21.10;99.90;;;;;;2087899;28;20123;-71
2021/09/15 02:19:43;;;;;;;8.50;7.70;;;21.10;99.90;;;;;;2097936;28;20028;-71
2021/09/15 02:20:43;;;;;;;8.45;7.63;;;21.10;99.90;;;;;;2081669;28;20068;-71
2021/09/15 02:21:44;;;;;;;9.57;7.65;;;21.10;99.90;;;;;;2081590;28;20053;-71
2021/09/15 02:22:45;;;;;;;8.32;7.65;;;21.10;99.90;;;;;;2081641;28;20025;-71
2021/09/15 02:23:46;;;;;;;8.27;7.57;;;21.10;99.90;;;;;;2081583;28;20087;-71
2021/09/15 02:24:46;;;;;;;8.88;7.95;;;21.10;99.90;;;;;;2081707;28;20573;-71
2021/09/15 02:25:47;;;;;;;8.35;7.38;;;21.10;99.90;;;;;;2081752;28;20068;-71
2021/09/15 02:26:47;;;;;;;7.95;7.30;;;21.10;99.90;;;;;;2081770;28;20022;-71
2021/09/15 02:27:48;;;;;;;8.85;7.88;;;21.10;99.90;;;;;;2081772;28;20026;-71
2021/09/15 02:28:48;;;;;;;7.60;7.00;;;21.10;99.90;;;;;;2081873;28;20026;-71
2021/09/15 02:29:49;;;;;;;8.02;7.22;;;21.10;99.90;;;;;;2081520;28;20461;-71
2021/09/15 02:30:49;;;;;;;8.23;7.53;;;21.10;99.90;;;;;;2082188;28;20029;-71
2021/09/15 02:31:50;;;;;;;8.85;7.95;;;21.10;99.90;;;;;;2088521;28;20040;-71
2021/09/15 02:32:50;;;;;;;9.40;7.72;;;21.10;99.90;;;;;;2088237;28;20082;-71
2021/09/15 02:33:51;;;;;;;8.70;7.80;;;21.10;99.90;;;;;;2081580;28;20034;-71
2021/09/15 02:34:51;;;;;;;9.15;8.25;;;21.10;99.90;;;;;;2087434;28;20471;-71
2021/09/15 02:35:52;;;;;;;8.38;7.47;;;21.10;99.90;;;;;;2089632;28;20074;-71
2021/09/15 02:36:53;;;;;;;8.65;7.85;;;21.10;99.90;;;;;;2090004;28;20047;-71
2021/09/15 02:37:53;;;;;;;8.55;7.85;;;21.10;99.90;;;;;;2089813;28;20075;-71
2021/09/15 02:38:54;;;;;;;8.65;7.90;;;21.10;99.90;;;;;;2089955;28;20083;-71
2021/09/15 02:39:54;;;;;;;8.00;7.40;;;21.10;99.90;;;;;;2082869;28;20404;-71
2021/09/15 02:40:55;;;;;;;9.63;8.65;;;21.10;99.90;;;;;;2086517;28;20079;-71
2021/09/15 02:41:56;;;;;;;10.35;7.82;;;21.10;99.90;;;;;;2080954;28;20370;-71
2021/09/15 02:42:56;;;;;;;8.68;7.85;;;21.10;99.90;;;;;;2080445;28;20373;-71
2021/09/15 02:43:57;;;;;;;8.13;7.43;;;21.10;99.90;;;;;;2081051;28;20117;-71
2021/09/15 02:44:58;;;;;;;8.43;7.60;;;21.10;99.90;;;;;;2082647;28;20029;-71
2021/09/15 02:45:58;;;;;;;8.65;7.78;;;21.10;99.90;;;;;;2085408;28;20029;-71
2021/09/15 02:46:59;;;;;;;8.48;7.78;;;21.10;99.90;;;;;;2081562;28;20172;-71
2021/09/15 02:47:59;;;;;;;8.93;8.02;;;21.10;99.90;;;;;;2081236;28;20018;-71
2021/09/15 02:49:00;;;;;;;8.30;7.50;;;21.10;99.90;;;;;;2081599;28;20025;-70
2021/09/15 02:50:01;;;;;;;7.60;7.00;;;21.10;99.90;;;;;;2081558;28;20033;-70
2021/09/15 02:51:01;;;;;;;8.50;7.60;;;21.10;99.90;;;;;;2081687;28;20030;-70
2021/09/15 02:52:02;;;;;;;8.93;8.23;;;21.10;99.90;;;;;;2081112;28;20029;-70
2021/09/15 02:53:03;;;;;;;9.40;8.48;;;21.10;99.90;;;;;;2081093;28;20382;-70
2021/09/15 02:54:04;;;;;;;8.70;7.90;;;21.10;99.90;;;;;;2081241;28;20064;-70
2021/09/15 02:55:04;;;;;;;7.70;7.00;;;21.10;99.90;;;;;;2081755;28;20017;-70
2021/09/15 02:56:05;;;;;;;8.60;7.90;;;21.10;99.90;;;;;;2081545;28;20041;-70
2021/09/15 02:57:06;;;;;;;9.40;8.52;;;21.10;99.90;;;;;;2081264;28;20028;-70
2021/09/15 02:58:07;;;;;;;9.65;8.20;;;21.00;99.90;;;;;;2081434;28;20057;-70
2021/09/15 02:59:07;;;;;;;8.88;7.45;;;21.10;99.90;;;;;;2083346;28;20026;-70
2021/09/15 03:00:09;;;;;;;8.23;7.53;;;21.00;99.90;;;;;;2089941;28;20461;-70
2021/09/15 03:01:09;;;;;;;8.98;8.10;;;21.00;99.90;;;;;;2081304;28;20040;-70
2021/09/15 03:02:10;;;;;;;8.77;8.07;;;21.00;99.90;;;;;;2080255;28;20045;-70
2021/09/15 03:03:11;;;;;;;8.80;7.88;;;21.00;99.90;;;;;;2080131;28;20037;-70
2021/09/15 03:04:11;;;;;;;8.57;7.78;;;21.00;99.90;;;;;;2080748;28;20018;-70
2021/09/15 03:05:12;;;;;;;8.43;7.72;;;21.00;99.90;;;;;;2080407;28;20083;-70
2021/09/15 03:06:12;;;;;;;8.80;7.95;;;21.00;99.90;;;;;;2080850;28;20080;-70
2021/09/15 03:07:13;;;;;;;9.63;8.48;;;21.00;99.90;;;;;;2080367;28;20500;-70
2021/09/15 03:08:13;;;;;;;9.35;8.43;;;21.00;99.90;;;;;;2080534;28;20014;-70
2021/09/15 03:09:14;;;;;;;9.30;8.48;;;21.00;99.90;;;;;;2080391;28;20029;-70
2021/09/15 03:10:14;;;;;;;8.63;7.93;;;21.00;99.90;;;;;;2080219;28;20532;-70
2021/09/15 03:11:15;;;;;;;8.48;7.80;;;21.00;99.90;;;;;;2079674;28;20021;-70
2021/09/15 03:12:15;;;;;;;8.68;7.97;;;21.10;99.90;;;;;;2079860;28;20029;-70
2021/09/15 03:13:16;;;;;;;9.43;8.52;;;21.00;99.90;;;;;;2081704;28;20155;-70
2021/09/15 03:14:17;;;;;;;9.48;8.57;;;21.00;99.90;;;;;;2079972;28;20026;-70
2021/09/15 03:15:17;;;;;;;8.45;7.75;;;21.00;99.90;;;;;;2080099;28;20021;-70
2021/09/15 03:16:21;;;;;;;9.07;8.18;;;21.00;99.90;;;;;;2080241;28;20022;-70
2021/09/15 03:17:21;;;;;;;9.68;8.77;;;21.00;99.90;;;;;;2079977;28;20796;-70
2021/09/15 03:18:22;;;;;;;9.23;8.38;;;21.00;99.90;;;;;;2080101;28;20044;-70
2021/09/15 03:19:23;;;;;;;9.45;8.32;;;21.00;99.90;;;;;;2080202;28;20461;-70
2021/09/15 03:20:23;;;;;;;9.40;8.35;;;21.00;99.90;;;;;;2080056;28;20029;-70
2021/09/15 03:21:24;;;;;;;9.23;8.00;;;21.00;99.90;;;;;;2079919;28;20067;-70
2021/09/15 03:22:24;;;;;;;9.23;8.43;;;21.00;99.90;;;;;;2079716;28;20068;-70
2021/09/15 03:23:25;;;;;;;9.35;8.60;;;21.00;99.90;;;;;;2079789;28;20671;-70
2021/09/15 03:24:25;;;;;;;9.95;9.05;;;21.00;99.90;;;;;;2080275;28;20025;-70
2021/09/15 03:25:26;;;;;;;9.57;8.68;;;21.00;99.90;;;;;;2079807;28;20025;-70
2021/09/15 03:26:27;;;;;;;10.60;9.50;;;21.00;99.90;;;;;;2079956;28;20056;-70
2021/09/15 03:27:27;;;;;;;9.48;8.68;;;21.00;99.90;;;;;;2082904;28;20462;-70
2021/09/15 03:28:28;;;;;;;8.23;7.57;;;21.00;99.90;;;;;;2082991;28;20032;-70
2021/09/15 03:29:28;;;;;;;9.15;8.23;;;21.00;99.90;;;;;;2080166;28;20029;-70
2021/09/15 03:30:29;;;;;;;9.18;8.32;;;21.00;99.90;;;;;;2080037;28;20112;-71
2021/09/15 03:31:30;;;;;;;8.57;7.70;;;21.00;99.90;;;;;;2080336;28;20113;-70
2021/09/15 03:32:30;;;;;;;9.77;8.90;;;21.00;99.90;;;;;;2086255;28;20059;-70
2021/09/15 03:33:31;;;;;;;9.55;8.50;;;21.00;99.90;;;;;;2087736;28;20028;-70
2021/09/15 03:34:32;;;;;;;9.77;8.68;;;21.00;99.90;;;;;;2084865;28;20136;-70
2021/09/15 03:35:32;;;;;;;9.82;8.93;;;21.00;99.90;;;;;;2080287;28;20036;-70
2021/09/15 03:36:34;;;;;;;9.75;8.85;;;21.10;99.90;;;;;;2086097;28;20032;-70
2021/09/15 03:37:34;;;;;;;9.75;8.75;;;21.00;99.90;;;;;;2088120;28;20021;-70
2021/09/15 03:38:35;;;;;;;9.55;8.75;;;21.00;99.90;;;;;;2088136;28;20025;-70
2021/09/15 03:39:35;;;;;;;9.20;8.40;;;21.00;99.90;;;;;;2085468;28;20079;-70
2021/09/15 03:40:36;;;;;;;9.40;8.65;;;21.00;99.90;;;;;;2088143;28;20473;-70
2021/09/15 03:41:36;;;;;;;9.23;8.40;;;21.10;99.90;;;;;;2083934;28;20028;-70
2021/09/15 03:42:37;;;;;;;8.65;7.95;;;21.00;99.90;;;;;;2083651;28;20033;-70
2021/09/15 03:43:38;;;;;;;9.23;8.52;;;21.00;99.90;;;;;;2080126;28;20033;-70
2021/09/15 03:44:38;;;;;;;8.90;8.07;;;21.00;99.90;;;;;;2079936;28;20029;-70
2021/09/15 03:45:39;;;;;;;9.02;8.30;;;21.00;99.90;;;;;;2079905;28;20029;-70
2021/09/15 03:46:40;;;;;;;9.35;8.52;;;21.00;99.90;;;;;;2079966;28;20107;-70
2021/09/15 03:47:40;;;;;;;9.38;8.68;;;21.10;99.90;;;;;;2079983;28;20045;-70
2021/09/15 03:48:41;;;;;;;9.30;8.50;;;21.00;99.90;;;;;;2079883;28;20057;-70
2021/09/15 03:49:41;;;;;;;9.98;8.95;;;21.00;99.90;;;;;;2079987;28;20055;-70
2021/09/15 03:50:42;;;;;;;8.68;8.02;;;21.00;99.90;;;;;;2079439;28;20041;-70
2021/09/15 03:51:42;;;;;;;10.90;9.02;;;21.10;99.90;;;;;;2079878;28;20014;-70
2021/09/15 03:52:43;;;;;;;10.50;8.80;;;21.10;99.90;;;;;;2079487;28;20017;-70
2021/09/15 03:53:43;;;;;;;10.05;9.05;;;21.00;99.90;;;;;;2079399;28;20080;-71
2021/09/15 03:54:44;;;;;;;10.70;9.70;;;21.00;99.90;;;;;;2079557;28;20060;-70
2021/09/15 03:55:45;;;;;;;11.48;9.30;;;21.00;99.90;;;;;;2080106;28;20037;-70
2021/09/15 03:56:45;;;;;;;10.60;9.50;;;21.00;99.90;;;;;;2079748;28;20037;-70
2021/09/15 03:57:46;;;;;;;9.88;8.98;;;21.00;99.90;;;;;;2079585;28;20692;-70
2021/09/15 03:58:46;;;;;;;10.23;9.23;;;21.10;99.90;;;;;;2079786;28;20041;-70
2021/09/15 03:59:47;;;;;;;9.75;8.90;;;21.00;99.90;;;;;;2079927;28;20063;-70
2021/09/15 04:00:48;;;;;;;10.18;9.23;;;21.00;99.90;;;;;;2079660;28;20033;-70
2021/09/15 04:01:48;;;;;;;10.38;9.38;;;21.00;99.90;;;;;;2079596;28;20061;-70
2021/09/15 04:02:49;;;;;;;10.45;9.50;;;21.10;99.90;;;;;;2079497;28;20053;-71
2021/09/15 04:03:49;;;;;;;10.65;9.55;;;21.00;99.90;;;;;;2079790;28;20024;-71
2021/09/15 04:04:50;;;;;;;11.00;9.90;;;21.10;99.90;;;;;;2079828;28;20880;-71
2021/09/15 04:05:50;;;;;;;10.18;9.27;;;21.10;99.90;;;;;;2079802;28;20414;-70
2021/09/15 04:06:51;;;;;;;11.23;10.13;;;21.00;99.90;;;;;;2079867;28;20038;-70
2021/09/15 04:07:52;;;;;;;10.57;9.52;;;21.00;99.90;;;;;;2079771;28;20049;-70
2021/09/15 04:08:52;;;;;;;10.90;9.82;;;21.00;99.90;;;;;;2079186;28;20025;-70
2021/09/15 04:09:53;;;;;;;10.77;9.55;;;21.00;99.90;;;;;;2083529;28;20045;-70
2021/09/15 04:10:53;;;;;;;11.23;10.07;;;21.00;99.90;;;;;;2080220;28;20036;-70
2021/09/15 04:11:54;;;;;;;10.95;9.48;;;21.00;99.90;;;;;;2079499;28;20268;-71
2021/09/15 04:12:54;;;;;;;10.70;9.68;;;21.00;99.90;;;;;;2079270;28;20017;-70
2021/09/15 04:13:55;;;;;;;10.65;9.63;;;21.00;99.90;;;;;;2080646;28;20461;-71
2021/09/15 04:14:55;;;;;;;10.68;9.68;;;21.10;99.90;;;;;;2079501;28;20029;-71
2021/09/15 04:15:56;;;;;;;11.73;10.23;;;21.00;99.90;;;;;;2079798;28;20033;-71
2021/09/15 04:16:57;;;;;;;12.73;10.40;;;21.00;99.90;;;;;;2079908;28;20029;-71
2021/09/15 04:17:57;;;;;;;10.13;8.98;;;21.10;99.90;;;;;;2079782;28;20021;-70
2021/09/15 04:18:58;;;;;;;10.73;9.63;;;21.00;99.90;;;;;;2079768;28;20036;-70
2021/09/15 04:19:58;;;;;;;11.25;10.15;;;21.00;99.90;;;;;;2079287;28;20029;-71
2021/09/15 04:20:59;;;;;;;10.32;9.30;;;21.10;99.90;;;;;;2079157;28;20029;-71
2021/09/15 04:22:00;;;;;;;11.45;9.75;;;21.10;99.90;;;;;;2078431;28;20030;-71
2021/09/15 04:23:01;;;;;;;11.48;10.43;;;21.10;99.90;;;;;;2079358;28;20033;-71
2021/09/15 04:24:16;;;;;;;10.55;9.45;;;21.10;99.90;;;;;;2085029;28;20629;-71
2021/09/15 04:31:57;;;;;;;11.20;10.05;;;21.00;99.90;;;;;;2079272;28;20033;-71
2021/09/15 04:32:58;;;;;;;10.55;9.55;;;21.00;99.90;;;;;;2079136;28;20025;-70
2021/09/15 04:34:01;;;;;;;10.35;9.45;;;21.10;99.90;;;;;;2079733;28;20061;-71
2021/09/15 04:35:02;;;;;;;10.27;9.35;;;21.10;99.90;;;;;;2086908;28;20546;-70
2021/09/15 04:36:03;;;;;;;10.13;9.25;;;21.10;99.90;;;;;;2087939;28;20440;-70
2021/09/15 04:37:03;;;;;;;9.98;8.95;;;21.10;99.90;;;;;;2087830;28;20074;-71
2021/09/15 04:38:04;;;;;;;11.10;10.18;;;21.10;99.90;;;;;;2087299;28;20025;-71
2021/09/15 04:39:05;;;;;;;11.07;9.85;;;21.10;99.90;;;;;;2087762;28;20457;-71
2021/09/15 04:40:06;;;;;;;11.05;10.02;;;21.10;99.90;;;;;;2079857;28;20053;-71
2021/09/15 04:41:06;;;;;;;10.82;9.82;;;21.10;99.90;;;;;;2083847;28;20616;-71
2021/09/15 04:42:07;;;;;;;11.45;10.27;;;21.10;99.90;;;;;;2079576;28;20440;-71
2021/09/15 04:43:07;;;;;;;11.20;10.10;;;21.10;99.90;;;;;;2079256;28;20072;-71
2021/09/15 04:44:08;;;;;;;10.70;9.65;;;21.20;99.90;;;;;;2079790;28;20017;-71
2021/09/15 04:45:10;;;;;;;9.55;8.75;;;21.10;99.90;;;;;;2079458;28;20080;-70
2021/09/15 04:46:11;;;;;;;10.80;9.80;;;21.10;99.90;;;;;;2079950;28;20120;-71
2021/09/15 04:47:11;;;;;;;10.77;9.80;;;21.20;99.90;;;;;;2079597;28;20030;-71
2021/09/15 04:48:12;;;;;;;10.57;9.57;;;21.20;99.90;;;;;;2079462;28;20060;-71
2021/09/15 04:49:12;;;;;;;10.45;9.43;;;21.20;99.90;;;;;;2079579;28;20071;-71
2021/09/15 04:50:13;;;;;;;10.52;9.52;;;21.20;99.90;;;;;;2079504;28;20028;-71
2021/09/15 04:51:14;;;;;;;9.75;8.95;;;21.20;99.90;;;;;;2079670;28;20393;-71
2021/09/15 04:52:14;;;;;;;9.95;8.95;;;21.20;99.90;;;;;;2083231;28;20465;-71
2021/09/15 04:53:15;;;;;;;12.07;9.63;;;21.20;99.90;;;;;;2078443;28;20020;-70
2021/09/15 04:54:15;;;;;;;10.27;9.02;;;21.20;99.90;;;;;;2079910;28;20025;-69
2021/09/15 04:55:16;;;;;;;10.85;9.85;;;21.20;99.90;;;;;;2079563;28;20025;-69
2021/09/15 04:56:17;;;;;;;10.57;9.57;;;21.20;99.90;;;;;;2079548;28;20378;-69
2021/09/15 04:57:17;;;;;;;11.32;10.43;;;21.20;99.90;;;;;;2079555;28;20033;-69
2021/09/15 04:58:18;;;;;;;11.02;10.10;;;21.20;99.90;;;;;;2079616;28;20017;-69
2021/09/15 04:59:18;;;;;;;11.15;10.07;;;21.20;99.90;;;;;;2079718;28;20117;-69
2021/09/15 05:00:19;;;;;;;11.48;10.38;;;21.20;99.90;;;;;;2079435;28;20017;-69
2021/09/15 05:01:19;;;;;;;12.15;10.88;;;21.20;99.90;;;;;;2079377;28;20091;-69
2021/09/15 05:02:20;;;;;;;10.40;9.50;;;21.20;99.90;;;;;;2079331;28;20025;-69
2021/09/15 05:03:21;;;;;;;11.70;10.60;;;21.20;99.90;;;;;;2079020;28;20508;-69
2021/09/15 05:04:21;;;;;;;12.23;10.77;;;21.20;99.90;;;;;;2079776;28;20045;-69
2021/09/15 05:05:22;;;;;;;10.93;10.02;;;21.20;99.90;;;;;;2079591;28;20021;-69
2021/09/15 05:06:23;;;;;;;12.55;11.25;;;21.20;99.90;;;;;;2085910;28;20049;-68
2021/09/15 05:07:23;;;;;;;11.20;10.27;;;21.20;99.90;;;;;;2082133;28;20151;-69
2021/09/15 05:08:24;;;;;;;11.38;10.25;;;21.20;99.90;;;;;;2079123;28;20102;-69
2021/09/15 05:09:24;;;;;;;11.88;10.77;;;21.20;99.90;;;;;;2080149;28;20139;-69
2021/09/15 05:10:25;;;;;;;11.63;10.52;;;21.20;99.90;;;;;;2081271;28;20049;-69
2021/09/15 05:11:26;;;;;;;11.02;10.13;;;21.20;99.90;;;;;;2081195;28;20055;-69
2021/09/15 05:12:26;;;;;;;11.75;10.75;;;21.20;99.90;;;;;;2081050;28;20056;-69
2021/09/15 05:13:27;;;;;;;11.98;10.98;;;21.20;99.90;;;;;;2083144;28;20021;-69
2021/09/15 05:14:27;;;;;;;11.13;10.00;;;21.20;99.90;;;;;;2080909;28;20056;-69
2021/09/15 05:15:28;;;;;;;11.60;10.60;;;21.20;99.90;;;;;;2081019;28;20072;-69
2021/09/15 05:16:30;;;;;;;10.73;9.77;;;21.20;99.90;;;;;;2080826;28;20041;-69
2021/09/15 05:17:31;;;;;;;11.95;10.88;;;21.10;99.90;;;;;;2081172;28;20049;-69
2021/09/15 05:18:32;;;;;;;11.45;10.25;;;21.10;99.90;;;;;;2080983;28;20104;-69
2021/09/15 05:19:32;;;;;;;11.60;10.55;;;21.10;99.90;;;;;;2081233;28;20037;-69
2021/09/15 05:20:33;;;;;;;11.70;10.65;;;21.10;99.90;;;;;;2082616;28;20057;-69
2021/09/15 05:21:33;;;;;;;11.98;10.95;;;21.10;99.90;;;;;;2080801;28;20116;-69